createdAt,value
2022-11-16T00:01:32.912Z,15.48
2022-11-16T00:04:03.486Z,11.35
2022-11-16T00:06:30.387Z,14.48
2022-11-16T00:09:19.078Z,12.77
2022-11-16T00:11:45.753Z,20.05
2022-11-16T00:14:14.178Z,18.52
2022-11-16T00:16:43.353Z,14.52
2022-11-16T00:19:11.148Z,17.63
2022-11-16T00:21:38.292Z,15.93
2022-11-16T00:24:05.666Z,16.92
2022-11-16T00:26:32.426Z,20.67
2022-11-16T00:28:59.168Z,15.30
2022-11-16T00:31:27.384Z,19.00
2022-11-16T00:33:53.891Z,16.63
2022-11-16T00:36:20.460Z,22.90
2022-11-16T00:38:47.227Z,19.55
2022-11-16T00:41:14.352Z,21.83
2022-11-16T00:43:41.106Z,23.63
2022-11-16T00:46:09.482Z,23.02
2022-11-16T00:48:36.325Z,20.42
2022-11-16T00:51:03.293Z,22.42
2022-11-16T00:53:31.577Z,22.52
2022-11-16T00:55:58.199Z,20.25
2022-11-16T00:58:24.755Z,19.52
2022-11-16T01:00:53.078Z,16.25
2022-11-16T01:03:21.663Z,15.27
2022-11-16T01:05:48.212Z,16.67
2022-11-16T01:08:14.937Z,11.10
2022-11-16T01:10:42.059Z,16.50
2022-11-16T01:13:10.309Z,16.45
2022-11-16T01:15:36.994Z,13.95
2022-11-16T01:18:03.516Z,14.85
2022-11-16T01:20:30.070Z,14.88
2022-11-16T01:22:57.319Z,15.18
2022-11-16T01:25:23.825Z,11.82
2022-11-16T01:27:53.761Z,12.18
2022-11-16T01:30:22.420Z,8.82
2022-11-16T01:32:48.911Z,12.68
2022-11-16T01:35:17.946Z,8.40
2022-11-16T01:37:53.010Z,9.05
2022-11-16T01:40:19.515Z,8.68
2022-11-16T01:42:45.981Z,10.57
2022-11-16T01:45:39.918Z,8.82
2022-11-16T01:48:07.330Z,7.43
2022-11-16T01:50:35.037Z,7.25
2022-11-16T01:53:05.536Z,7.85
2022-11-16T01:55:34.175Z,8.73
2022-11-16T01:58:02.151Z,11.65
2022-11-16T02:00:30.550Z,11.38
2022-11-16T02:02:57.085Z,8.75
2022-11-16T02:05:42.432Z,9.77
2022-11-16T02:09:05.988Z,11.43
2022-11-16T02:11:42.818Z,7.47
2022-11-16T02:14:39.173Z,8.20
2022-11-16T02:17:17.160Z,7.85
2022-11-16T02:20:06.338Z,9.60
2022-11-16T02:22:51.101Z,9.18
2022-11-16T02:25:34.891Z,8.45
2022-11-16T02:28:07.671Z,7.10
2022-11-16T02:30:37.109Z,8.85
2022-11-16T02:33:16.412Z,7.70
2022-11-16T02:35:48.125Z,11.73
2022-11-16T02:38:19.133Z,11.05
2022-11-16T02:40:50.204Z,11.68
2022-11-16T02:43:23.195Z,11.82
2022-11-16T02:45:57.888Z,13.20
2022-11-16T02:48:30.551Z,12.27
2022-11-16T02:53:25.840Z,12.43
2022-11-16T02:55:52.734Z,10.75
2022-11-16T02:58:30.598Z,10.30
2022-11-16T03:01:24.415Z,9.38
2022-11-16T03:03:58.117Z,16.17
2022-11-16T03:06:30.062Z,14.52
2022-11-16T03:09:02.290Z,12.40
2022-11-16T03:11:51.422Z,14.68
2022-11-16T03:14:20.722Z,13.13
2022-11-16T03:16:53.799Z,10.60
2022-11-16T03:19:29.563Z,12.65
2022-11-16T03:24:27.311Z,13.07
2022-11-16T03:27:02.492Z,9.82
2022-11-16T03:29:33.286Z,11.50
2022-11-16T03:32:19.636Z,13.88
2022-11-16T03:34:56.624Z,12.55
2022-11-16T03:37:25.525Z,9.18
2022-11-16T03:39:53.914Z,9.32
2022-11-16T03:42:23.045Z,9.50
2022-11-16T03:44:50.531Z,10.63
2022-11-16T03:47:17.202Z,9.15
2022-11-16T03:49:47.747Z,7.90
2022-11-16T03:52:22.449Z,7.38
2022-11-16T03:54:50.762Z,8.77
2022-11-16T03:57:19.031Z,6.85
2022-11-16T03:59:46.075Z,9.43
2022-11-16T04:02:14.495Z,7.47
2022-11-16T04:04:59.780Z,6.53
2022-11-16T04:07:44.865Z,7.53
2022-11-16T04:10:30.057Z,7.18
2022-11-16T04:13:17.917Z,7.88
2022-11-16T04:16:02.766Z,7.53
2022-11-16T04:18:50.497Z,6.72
2022-11-16T04:21:57.685Z,6.88
2022-11-16T04:27:18.935Z,5.80
2022-11-16T04:29:47.567Z,9.55
2022-11-16T04:32:32.987Z,7.63
2022-11-16T04:35:18.228Z,6.77
2022-11-16T04:37:52.420Z,7.18
2022-11-16T04:40:26.812Z,6.00
2022-11-16T04:43:01.160Z,7.53
2022-11-16T04:45:51.694Z,7.65
2022-11-16T04:48:19.728Z,7.93
2022-11-16T04:50:47.387Z,7.68
2022-11-16T04:53:16.463Z,6.72
2022-11-16T04:55:42.991Z,12.95
2022-11-16T04:58:09.768Z,17.80
2022-11-16T05:00:36.374Z,85.50
2022-11-16T05:03:04.795Z,101.10
2022-11-16T05:05:31.445Z,60.38
2022-11-16T05:07:59.643Z,77.47
2022-11-16T05:10:26.489Z,119.40
2022-11-16T05:12:52.978Z,48.28
2022-11-16T05:15:20.008Z,85.25
2022-11-16T05:17:47.436Z,189.68
2022-11-16T05:20:34.193Z,89.97
2022-11-16T05:23:00.684Z,62.20
2022-11-16T05:25:28.532Z,46.67
2022-11-16T05:27:58.058Z,23.48
2022-11-16T05:30:24.586Z,33.40
2022-11-16T05:32:51.101Z,47.20
2022-11-16T05:35:29.268Z,28.08
2022-11-16T05:37:57.739Z,34.78
2022-11-16T05:40:24.266Z,16.25
2022-11-16T05:42:50.973Z,27.67
2022-11-16T05:45:21.111Z,18.42
2022-11-16T05:47:49.537Z,15.05
2022-11-16T05:50:16.336Z,21.13
2022-11-16T05:52:42.891Z,39.17
2022-11-16T05:55:09.872Z,49.63
2022-11-16T05:57:45.382Z,14.45
2022-11-16T06:00:14.605Z,15.77
2022-11-16T06:02:41.113Z,9.38
2022-11-16T06:05:09.731Z,7.93
2022-11-16T06:07:36.503Z,5.15
2022-11-16T06:10:03.199Z,12.98
2022-11-16T06:12:29.840Z,14.98
2022-11-16T06:14:56.360Z,9.20
2022-11-16T06:17:24.553Z,17.25
2022-11-16T06:19:52.797Z,17.83
2022-11-16T06:22:19.287Z,18.35
2022-11-16T06:24:45.799Z,17.23
2022-11-16T06:27:14.552Z,29.15
2022-11-16T06:29:42.968Z,24.38
2022-11-16T06:32:09.498Z,19.13
2022-11-16T06:34:36.214Z,22.08
2022-11-16T06:37:02.711Z,45.65
2022-11-16T06:39:31.091Z,110.43
2022-11-16T06:41:59.383Z,39.78
2022-11-16T06:44:25.850Z,15.13
2022-11-16T06:46:52.336Z,105.55
2022-11-16T06:49:22.583Z,26.40
2022-11-16T06:51:49.064Z,9.90
2022-11-16T06:54:15.546Z,15.23
2022-11-16T06:56:48.311Z,16.50
2022-11-16T06:59:14.810Z,6.85
2022-11-16T07:01:44.683Z,65.32
2022-11-16T07:04:12.184Z,22.20
2022-11-16T07:06:39.157Z,16.17
2022-11-16T07:09:06.552Z,22.70
2022-11-16T07:11:34.401Z,22.15
2022-11-16T07:14:01.041Z,41.25
2022-11-16T07:16:27.505Z,44.53
2022-11-16T07:18:58.204Z,75.15
2022-11-16T07:21:25.412Z,8.20
2022-11-16T07:23:51.930Z,17.67
2022-11-16T07:26:20.159Z,19.98
2022-11-16T07:28:48.444Z,34.55
2022-11-16T07:31:16.135Z,29.23
2022-11-16T07:33:51.140Z,52.53
2022-11-16T07:36:18.820Z,52.88
2022-11-16T07:38:45.658Z,53.70
2022-11-16T07:41:20.232Z,23.23
2022-11-16T07:43:52.654Z,47.50
2022-11-16T07:46:46.074Z,18.67
2022-11-16T07:49:11.712Z,18.20
2022-11-16T07:51:38.343Z,48.65
2022-11-16T07:54:06.603Z,15.65
2022-11-16T07:56:33.359Z,26.05
2022-11-16T07:58:59.866Z,21.52
2022-11-16T08:01:26.369Z,37.97
2022-11-16T08:04:02.090Z,8.48
2022-11-16T08:06:33.153Z,38.90
2022-11-16T08:09:00.796Z,13.75
2022-11-16T08:11:27.730Z,11.30
2022-11-16T08:13:54.335Z,10.95
2022-11-16T08:16:22.503Z,29.15
2022-11-16T08:18:57.053Z,8.23
2022-11-16T08:21:23.523Z,6.72
2022-11-16T08:23:55.199Z,6.20
2022-11-16T08:26:24.722Z,4.32
2022-11-16T08:28:53.642Z,4.72
2022-11-16T08:31:28.271Z,3.80
2022-11-16T08:33:54.898Z,3.15
2022-11-16T08:36:21.435Z,2.90
2022-11-16T08:38:49.989Z,4.20
2022-11-16T08:41:17.741Z,2.17
2022-11-16T08:43:47.379Z,2.40
2022-11-16T08:46:14.710Z,1.85
2022-11-16T08:48:41.365Z,2.78
2022-11-16T08:51:19.431Z,3.50
2022-11-16T08:53:49.933Z,2.38
2022-11-16T08:56:18.916Z,1.55
2022-11-16T08:58:53.831Z,2.67
2022-11-16T09:01:28.058Z,1.65
2022-11-16T09:03:55.208Z,1.90
2022-11-16T09:06:22.727Z,2.45
2022-11-16T09:08:52.382Z,2.35
2022-11-16T09:11:21.797Z,3.00
2022-11-16T09:13:51.334Z,3.47
2022-11-16T09:16:22.682Z,1.65
2022-11-16T09:18:51.191Z,2.08
2022-11-16T09:21:19.799Z,4.90
2022-11-16T09:23:47.246Z,2.38
2022-11-16T09:26:14.123Z,2.10
2022-11-16T09:28:42.954Z,2.58
2022-11-16T09:31:12.425Z,1.65
2022-11-16T09:33:38.945Z,2.67
2022-11-16T09:36:08.073Z,4.10
2022-11-16T09:41:56.677Z,3.97
2022-11-16T09:44:37.239Z,1.38
2022-11-16T09:47:07.759Z,1.42
2022-11-16T09:49:46.308Z,1.45
2022-11-16T09:52:34.048Z,3.17
2022-11-16T09:55:22.440Z,1.00
2022-11-16T09:57:52.040Z,1.45
2022-11-16T10:00:23.017Z,1.73
2022-11-16T10:03:08.247Z,1.50
2022-11-16T10:05:38.652Z,1.42
2022-11-16T10:08:37.600Z,2.70
2022-11-16T10:11:40.366Z,1.60
2022-11-16T10:14:27.824Z,1.65
2022-11-16T10:17:23.354Z,4.00
2022-11-16T10:20:30.600Z,2.13
2022-11-16T10:23:10.108Z,1.27
2022-11-16T10:25:44.015Z,2.70
2022-11-16T10:28:27.666Z,1.85
2022-11-16T10:31:16.535Z,1.50
2022-11-16T10:33:46.673Z,1.50
2022-11-16T10:36:15.318Z,2.45
2022-11-16T10:38:44.540Z,3.20
2022-11-16T10:41:18.675Z,1.85
2022-11-16T10:43:46.292Z,3.78
2022-11-16T10:46:22.751Z,2.08
2022-11-16T10:49:02.223Z,2.70
2022-11-16T10:51:30.778Z,0.93
2022-11-16T10:53:59.588Z,2.20
2022-11-16T10:56:32.614Z,3.60
2022-11-16T10:59:07.365Z,3.08
2022-11-16T11:01:38.072Z,2.00
2022-11-16T11:04:25.849Z,2.33
2022-11-16T11:07:00.450Z,1.38
2022-11-16T11:09:38.212Z,2.28
2022-11-16T11:12:39.579Z,4.72
2022-11-16T11:15:12.196Z,2.47
2022-11-16T11:17:49.159Z,2.28
2022-11-16T11:20:15.989Z,1.77
2022-11-16T11:22:45.440Z,3.05
2022-11-16T11:25:32.523Z,1.85
2022-11-16T11:28:20.338Z,2.28
2022-11-16T11:31:07.412Z,2.08
2022-11-16T11:33:38.167Z,3.38
2022-11-16T11:36:18.800Z,2.22
2022-11-16T11:39:06.653Z,1.88
2022-11-16T11:41:43.089Z,1.42
2022-11-16T11:44:17.013Z,4.82
2022-11-16T11:49:50.141Z,2.58
2022-11-16T11:52:35.197Z,1.45
2022-11-16T11:55:05.612Z,2.63
2022-11-16T11:57:42.824Z,2.97
2022-11-16T12:00:16.433Z,2.58
2022-11-16T12:03:18.035Z,1.52
2022-11-16T12:05:57.411Z,3.05
2022-11-16T12:09:05.283Z,1.38
2022-11-16T12:12:11.803Z,1.90
2022-11-16T12:15:13.822Z,2.88
2022-11-16T12:18:06.951Z,1.95
2022-11-16T12:20:46.329Z,1.15
2022-11-16T12:23:24.713Z,2.13
2022-11-16T12:26:01.728Z,1.75
2022-11-16T12:28:51.506Z,1.60
2022-11-16T12:31:46.704Z,3.47
2022-11-16T12:34:25.224Z,1.70
2022-11-16T12:37:08.636Z,3.67
2022-11-16T12:39:58.288Z,2.08
2022-11-16T12:42:33.262Z,3.20
2022-11-16T12:45:32.561Z,2.70
2022-11-16T12:48:04.342Z,3.50
2022-11-16T12:50:48.826Z,2.22
2022-11-16T12:53:47.121Z,4.88
2022-11-16T12:56:32.383Z,2.35
2022-11-16T12:59:19.918Z,1.83
2022-11-16T13:02:23.928Z,1.15
2022-11-16T13:05:11.912Z,1.88
2022-11-16T13:07:44.556Z,2.65
2022-11-16T13:10:21.205Z,2.75
2022-11-16T13:13:09.071Z,4.88
2022-11-16T13:15:44.592Z,1.80
2022-11-16T13:18:21.381Z,1.70
2022-11-16T13:20:52.443Z,1.77
2022-11-16T13:23:33.457Z,1.92
2022-11-16T13:26:22.293Z,2.38
2022-11-16T13:29:03.294Z,2.97
2022-11-16T13:31:46.703Z,1.27
2022-11-16T13:34:20.418Z,2.22
2022-11-16T13:36:47.914Z,2.53
2022-11-16T13:39:21.862Z,2.10
2022-11-16T13:42:12.411Z,1.37
2022-11-16T13:44:39.432Z,2.05
2022-11-16T13:47:20.404Z,2.03
2022-11-16T13:49:52.377Z,1.90
2022-11-16T13:52:24.804Z,1.85
2022-11-16T13:54:57.143Z,2.40
2022-11-16T13:57:25.031Z,2.53
2022-11-16T14:00:00.699Z,2.30
2022-11-16T14:02:29.933Z,1.58
2022-11-16T14:05:05.355Z,1.05
2022-11-16T14:07:44.778Z,1.42
2022-11-16T14:10:12.715Z,3.25
2022-11-16T14:12:39.148Z,4.05
2022-11-16T14:15:24.917Z,1.08
2022-11-16T14:18:14.673Z,1.73
2022-11-16T14:21:02.414Z,1.65
2022-11-16T14:23:44.498Z,0.75
2022-11-16T14:26:37.283Z,2.45
2022-11-16T14:29:46.216Z,2.13
2022-11-16T14:35:32.545Z,2.13
2022-11-16T14:38:06.430Z,0.90
2022-11-16T14:40:59.187Z,0.68
2022-11-16T14:43:45.899Z,1.25
2022-11-16T14:46:37.298Z,4.70
2022-11-16T14:49:04.999Z,1.67
2022-11-16T14:51:44.024Z,2.08
2022-11-16T14:54:32.301Z,3.25
2022-11-16T14:57:01.819Z,4.70
2022-11-16T14:59:34.010Z,2.55
2022-11-16T15:02:13.758Z,1.98
2022-11-16T15:04:40.441Z,5.20
2022-11-16T15:07:11.156Z,2.72
2022-11-16T15:09:42.509Z,3.65
2022-11-16T15:12:35.238Z,2.15
2022-11-16T15:15:14.887Z,3.53
2022-11-16T15:17:45.089Z,2.05
2022-11-16T15:20:19.953Z,1.83
2022-11-16T15:22:53.228Z,2.53
2022-11-16T15:25:28.814Z,2.45
2022-11-16T15:27:59.521Z,2.03
2022-11-16T15:30:28.922Z,2.25
2022-11-16T15:32:56.147Z,1.10
2022-11-16T15:35:25.651Z,3.85
2022-11-16T15:38:24.272Z,3.15
2022-11-16T15:41:03.647Z,4.28
2022-11-16T15:43:49.724Z,2.53
2022-11-16T15:46:29.237Z,3.25
2022-11-16T15:48:56.655Z,3.47
2022-11-16T15:51:23.664Z,6.15
2022-11-16T15:53:52.719Z,3.10
2022-11-16T15:56:31.265Z,2.53
2022-11-16T15:59:01.231Z,4.10
2022-11-16T16:01:30.342Z,4.18
2022-11-16T16:04:01.638Z,6.70
2022-11-16T16:06:47.263Z,5.60
2022-11-16T16:09:22.045Z,4.93
2022-11-16T16:11:51.713Z,3.85
2022-11-16T16:14:29.185Z,3.35
2022-11-16T16:17:00.574Z,7.10
2022-11-16T16:19:38.684Z,6.20
2022-11-16T16:22:13.715Z,3.53
2022-11-16T16:24:45.787Z,3.57
2022-11-16T16:27:15.596Z,3.75
2022-11-16T16:29:48.258Z,4.18
2022-11-16T16:32:24.808Z,4.32
2022-11-16T16:35:02.539Z,9.05
2022-11-16T16:37:31.584Z,3.47
2022-11-16T16:39:58.530Z,5.78
2022-11-16T16:42:27.571Z,4.55
2022-11-16T16:44:54.097Z,7.35
2022-11-16T16:47:21.034Z,5.10
2022-11-16T16:49:53.609Z,4.88
2022-11-16T16:52:20.112Z,2.60
2022-11-16T16:54:46.545Z,3.80
2022-11-16T16:57:17.453Z,3.97
2022-11-16T16:59:49.848Z,4.45
2022-11-16T17:02:17.199Z,2.95
2022-11-16T17:04:46.643Z,8.00
2022-11-16T17:07:13.217Z,2.05
2022-11-16T17:09:39.779Z,3.42
2022-11-16T17:12:08.278Z,4.55
2022-11-16T17:14:37.196Z,4.95
2022-11-16T17:17:03.655Z,3.33
2022-11-16T17:19:30.415Z,11.52
2022-11-16T17:21:56.920Z,6.10
2022-11-16T17:24:23.430Z,6.15
2022-11-16T17:27:00.454Z,5.80
2022-11-16T17:29:27.568Z,4.40
2022-11-16T17:31:54.162Z,6.10
2022-11-16T17:34:20.727Z,4.30
2022-11-16T17:36:49.045Z,5.55
2022-11-16T17:39:16.131Z,4.45
2022-11-16T17:41:44.338Z,9.50
2022-11-16T17:44:11.087Z,5.75
2022-11-16T17:46:37.543Z,3.90
2022-11-16T17:49:05.841Z,4.45
2022-11-16T17:51:32.425Z,4.72
2022-11-16T17:53:59.053Z,5.13
2022-11-16T17:56:26.890Z,6.20
2022-11-16T17:58:55.093Z,4.25
2022-11-16T18:01:22.870Z,4.55
2022-11-16T18:03:51.254Z,3.97
2022-11-16T18:06:20.252Z,5.72
2022-11-16T18:08:53.181Z,6.18
2022-11-16T18:11:25.297Z,3.50
2022-11-16T18:13:56.475Z,5.57
2022-11-16T18:16:26.963Z,4.68
2022-11-16T18:18:58.859Z,4.90
2022-11-16T18:21:25.752Z,5.50
2022-11-16T18:23:52.368Z,6.50
2022-11-16T18:26:22.040Z,6.85
2022-11-16T18:28:49.563Z,5.50
2022-11-16T18:31:19.976Z,7.22
2022-11-16T18:33:50.825Z,6.68
2022-11-16T18:36:18.774Z,5.38
2022-11-16T18:38:46.125Z,4.22
2022-11-16T18:41:19.536Z,3.05
2022-11-16T18:43:55.805Z,5.50
2022-11-16T18:46:27.387Z,4.60
2022-11-16T18:48:55.495Z,3.55
2022-11-16T18:51:27.547Z,5.88
2022-11-16T18:53:56.530Z,3.65
2022-11-16T18:56:25.270Z,5.72
2022-11-16T18:58:52.936Z,5.10
2022-11-16T19:01:26.899Z,4.28
2022-11-16T19:03:55.171Z,4.13
2022-11-16T19:06:23.265Z,6.53
2022-11-16T19:08:59.309Z,5.93
2022-11-16T19:11:28.032Z,3.58
2022-11-16T19:13:57.826Z,4.70
2022-11-16T19:16:24.817Z,4.43
2022-11-16T19:18:51.460Z,4.22
2022-11-16T19:21:18.831Z,4.03
2022-11-16T19:23:47.566Z,5.00
2022-11-16T19:26:16.596Z,4.38
2022-11-16T19:28:45.700Z,3.88
2022-11-16T19:31:34.133Z,6.43
2022-11-16T19:34:09.545Z,4.95
2022-11-16T19:36:42.697Z,4.85
2022-11-16T19:39:09.322Z,6.90
2022-11-16T19:41:35.860Z,4.13
2022-11-16T19:44:02.507Z,4.00
2022-11-16T19:46:33.967Z,3.85
2022-11-16T19:49:06.359Z,2.70
2022-11-16T19:51:37.528Z,4.80
2022-11-16T19:54:04.237Z,3.78
2022-11-16T19:56:32.773Z,3.58
2022-11-16T19:58:59.301Z,3.10
2022-11-16T20:01:29.540Z,5.22
2022-11-16T20:03:58.330Z,2.72
2022-11-16T20:06:28.428Z,4.45
2022-11-16T20:08:58.472Z,3.95
2022-11-16T20:11:27.553Z,2.88
2022-11-16T20:13:57.007Z,9.95
2022-11-16T20:16:38.758Z,6.97
2022-11-16T20:19:10.344Z,4.60
2022-11-16T20:21:39.128Z,4.22
2022-11-16T20:24:08.911Z,4.68
2022-11-16T20:26:37.207Z,4.93
2022-11-16T20:29:04.646Z,2.88
2022-11-16T20:31:35.573Z,5.65
2022-11-16T20:34:05.201Z,3.72
2022-11-16T20:36:43.181Z,4.22
2022-11-16T20:39:13.994Z,7.15
2022-11-16T20:41:40.821Z,3.10
2022-11-16T20:44:16.857Z,2.85
2022-11-16T20:46:45.139Z,3.92
2022-11-16T20:49:11.889Z,5.43
2022-11-16T20:51:38.726Z,3.67
2022-11-16T20:54:05.416Z,5.93
2022-11-16T20:56:31.987Z,6.57
2022-11-16T20:59:01.242Z,7.50
2022-11-16T21:01:29.015Z,8.93
2022-11-16T21:03:56.599Z,8.63
2022-11-16T21:06:25.487Z,4.40
2022-11-16T21:08:52.199Z,7.78
2022-11-16T21:11:21.556Z,4.15
2022-11-16T21:14:09.088Z,10.23
2022-11-16T21:16:36.372Z,3.75
2022-11-16T21:19:03.557Z,5.40
2022-11-16T21:21:32.252Z,3.92
2022-11-16T21:23:58.711Z,3.17
2022-11-16T21:26:28.249Z,5.93
2022-11-16T21:28:56.763Z,4.50
2022-11-16T21:31:25.865Z,5.57
2022-11-16T21:33:53.408Z,3.50
2022-11-16T21:36:22.975Z,4.07
2022-11-16T21:38:49.904Z,4.68
2022-11-16T21:41:18.521Z,7.43
2022-11-16T21:43:47.355Z,4.82
2022-11-16T21:46:22.532Z,4.30
2022-11-16T21:48:51.359Z,3.60
2022-11-16T21:51:19.890Z,3.33
2022-11-16T21:53:47.054Z,6.75
2022-11-16T21:56:24.171Z,4.38
2022-11-16T21:58:54.145Z,4.68
2022-11-16T22:01:22.146Z,5.38
2022-11-16T22:04:10.621Z,4.18
2022-11-16T22:06:56.103Z,4.53
2022-11-16T22:09:23.173Z,5.13
2022-11-16T22:11:50.245Z,4.20
2022-11-16T22:14:17.072Z,5.25
2022-11-16T22:16:45.459Z,4.43
2022-11-16T22:19:11.962Z,4.75
2022-11-16T22:21:41.260Z,9.45
2022-11-16T22:24:14.526Z,3.85
2022-11-16T22:26:41.115Z,4.93
2022-11-16T22:29:07.655Z,3.33
2022-11-16T22:31:36.103Z,3.17
2022-11-16T22:34:06.316Z,3.50
2022-11-16T22:36:32.785Z,4.70
2022-11-16T22:38:59.556Z,4.70
2022-11-16T22:41:26.189Z,7.50
2022-11-16T22:43:52.804Z,3.05
2022-11-16T22:46:23.916Z,4.72
2022-11-16T22:48:50.379Z,2.80
2022-11-16T22:51:27.446Z,4.43
2022-11-16T22:53:54.950Z,3.40
2022-11-16T22:56:21.762Z,6.07
2022-11-16T22:58:48.636Z,5.88
2022-11-16T23:01:15.184Z,3.45
2022-11-16T23:03:46.311Z,5.28
2022-11-16T23:06:13.300Z,7.47
2022-11-16T23:08:42.578Z,3.03
2022-11-16T23:11:33.453Z,3.10
2022-11-16T23:14:18.531Z,5.00
2022-11-16T23:16:45.531Z,3.47
2022-11-16T23:19:34.757Z,3.05
2022-11-16T23:22:20.597Z,3.47
2022-11-16T23:25:06.003Z,4.88
2022-11-16T23:27:42.642Z,7.03
2022-11-16T23:30:13.332Z,5.15
2022-11-16T23:32:41.101Z,4.97
2022-11-16T23:35:10.330Z,7.85
2022-11-16T23:37:54.783Z,4.68
2022-11-16T23:40:25.330Z,4.55
2022-11-16T23:43:12.117Z,3.42
2022-11-16T23:45:40.229Z,5.07
2022-11-16T23:48:08.314Z,3.78
2022-11-16T23:50:37.368Z,4.00
2022-11-16T23:53:05.204Z,2.50
2022-11-16T23:55:44.923Z,2.60
2022-11-16T23:58:13.879Z,4.10
